createdAt,value
2023-03-06T10:37:14.572Z,9928.00
2023-03-06T10:38:14.545Z,8636.00
2023-03-06T10:39:14.550Z,7208.00
2023-03-06T10:40:14.556Z,7128.00
2023-03-06T10:41:14.554Z,6832.00
2023-03-06T10:42:14.566Z,6244.00
2023-03-06T10:43:14.578Z,6444.00
2023-03-06T10:44:14.562Z,7028.00
2023-03-06T10:45:14.578Z,8320.00
2023-03-06T10:46:14.654Z,9124.00
2023-03-06T10:47:14.578Z,10548.00
2023-03-06T10:48:14.579Z,11412.00
2023-03-06T10:49:14.593Z,12172.00
2023-03-06T10:50:14.588Z,12800.00
2023-03-06T10:51:18.463Z,13160.00
2023-03-06T10:52:14.597Z,13628.00
2023-03-06T10:53:14.684Z,13936.00
2023-03-06T10:54:14.610Z,14108.00
2023-03-06T10:55:14.606Z,14092.00
2023-03-06T10:56:14.611Z,13872.00
2023-03-06T10:57:14.616Z,13840.00
2023-03-06T10:58:14.640Z,13004.00
2023-03-06T10:59:14.650Z,11580.00
2023-03-06T11:00:14.630Z,10116.00
2023-03-06T11:01:14.677Z,8936.00
2023-03-06T11:02:14.641Z,7428.00
2023-03-06T11:03:14.642Z,5916.00
2023-03-06T11:04:14.662Z,5568.00
2023-03-06T11:05:14.650Z,7004.00
2023-03-06T11:06:14.657Z,8472.00
2023-03-06T11:07:14.688Z,7292.00
2023-03-06T11:08:14.664Z,6376.00
2023-03-06T11:09:14.696Z,6020.00
2023-03-06T11:10:14.672Z,5768.00
2023-03-06T11:11:16.929Z,5640.00
2023-03-06T11:12:14.683Z,5404.00
2023-03-06T11:13:14.688Z,4980.00
2023-03-06T11:14:14.696Z,4840.00
2023-03-06T11:15:14.721Z,5240.00
2023-03-06T11:16:14.792Z,6048.00
2023-03-06T11:17:14.704Z,6228.00
2023-03-06T11:18:14.707Z,5416.00
2023-03-06T11:19:14.714Z,4852.00
2023-03-06T11:20:14.757Z,5524.00
2023-03-06T11:21:14.722Z,6340.00
2023-03-06T11:22:14.730Z,6192.00
2023-03-06T11:23:14.737Z,5796.00
2023-03-06T11:24:14.750Z,5672.00
2023-03-06T11:25:14.804Z,5700.00
2023-03-06T11:26:14.743Z,5472.00
2023-03-06T11:27:14.749Z,5676.00
2023-03-06T11:28:14.749Z,5368.00
2023-03-06T11:29:14.875Z,4924.00
2023-03-06T11:30:14.756Z,4936.00
2023-03-06T11:31:14.777Z,5044.00
2023-03-06T11:32:14.795Z,5484.00
2023-03-06T11:33:14.767Z,5712.00
2023-03-06T11:34:14.774Z,5508.00
2023-03-06T11:35:14.779Z,5160.00
2023-03-06T11:36:14.781Z,5052.00
2023-03-06T11:37:14.784Z,4808.00
2023-03-06T11:38:14.789Z,4936.00
2023-03-06T11:39:15.614Z,5104.00
2023-03-06T11:40:14.795Z,5008.00
2023-03-06T11:41:14.902Z,4704.00
2023-03-06T11:42:14.801Z,4568.00
2023-03-06T11:43:14.808Z,4304.00
2023-03-06T11:44:14.807Z,4060.00
2023-03-06T11:45:14.812Z,3812.00
2023-03-06T11:46:14.849Z,3636.00
2023-03-06T11:47:14.833Z,3472.00
2023-03-06T11:48:14.841Z,3440.00
2023-03-06T11:49:14.833Z,3696.00
2023-03-06T11:50:14.830Z,3756.00
2023-03-06T11:51:14.836Z,3724.00
2023-03-06T11:52:14.835Z,3864.00
2023-03-06T11:53:14.841Z,3884.00
2023-03-06T11:54:14.843Z,3648.00
2023-03-06T11:55:14.850Z,3620.00
2023-03-06T11:56:14.851Z,3352.00
2023-03-06T11:57:14.934Z,2864.00
2023-03-06T11:58:14.866Z,2696.00
2023-03-06T11:59:14.879Z,2728.00
2023-03-06T12:00:14.886Z,3128.00
2023-03-06T12:01:14.870Z,3468.00
2023-03-06T12:02:14.932Z,3492.00
2023-03-06T12:03:14.880Z,3636.00
2023-03-06T12:04:14.890Z,3632.00
2023-03-06T12:05:14.905Z,3620.00
2023-03-06T12:06:14.891Z,3660.00
2023-03-06T12:07:14.893Z,3872.00
2023-03-06T12:08:14.899Z,4232.00
2023-03-06T12:09:14.913Z,4624.00
2023-03-06T12:10:14.926Z,4860.00
2023-03-06T12:11:14.909Z,4892.00
2023-03-06T12:12:14.940Z,4900.00
2023-03-06T12:13:14.934Z,4780.00
2023-03-06T12:14:14.918Z,4868.00
2023-03-06T12:15:14.926Z,5436.00
2023-03-06T12:16:14.976Z,6384.00
2023-03-06T12:17:14.935Z,7100.00
2023-03-06T12:18:14.930Z,7560.00
2023-03-06T12:19:14.940Z,8248.00
2023-03-06T12:20:15.009Z,8588.00
2023-03-06T12:21:14.950Z,8288.00
2023-03-06T12:22:14.941Z,7692.00
2023-03-06T12:23:16.025Z,6960.00
2023-03-06T12:24:14.960Z,6000.00
2023-03-06T12:25:14.962Z,5168.00
2023-03-06T12:26:14.957Z,4576.00
2023-03-06T12:27:14.965Z,4372.00
2023-03-06T12:28:14.964Z,4244.00
2023-03-06T12:29:14.990Z,4052.00
2023-03-06T12:30:15.022Z,4228.00
2023-03-06T12:31:14.979Z,4212.00
2023-03-06T12:32:15.168Z,4292.00
2023-03-06T12:33:14.999Z,4264.00
2023-03-06T12:34:14.992Z,4164.00
2023-03-06T12:35:14.998Z,4148.00
2023-03-06T12:36:15.001Z,4400.00
2023-03-06T12:37:15.007Z,4848.00
2023-03-06T12:38:15.017Z,5392.00
2023-03-06T12:39:15.010Z,5412.00
2023-03-06T12:40:15.047Z,5516.00
2023-03-06T12:41:15.016Z,5644.00
2023-03-06T12:42:23.246Z,5728.00
2023-03-06T12:43:15.024Z,5440.00
2023-03-06T12:44:15.037Z,5216.00
2023-03-06T12:45:15.056Z,4620.00
2023-03-06T12:46:15.089Z,4604.00
2023-03-06T12:47:15.040Z,4884.00
2023-03-06T12:48:15.042Z,4416.00
2023-03-06T12:49:23.032Z,4084.00
2023-03-06T12:50:15.043Z,4224.00
2023-03-06T12:51:15.046Z,4476.00
2023-03-06T12:52:18.522Z,4576.00
2023-03-06T12:53:15.072Z,4424.00
2023-03-06T12:54:15.056Z,4232.00
2023-03-06T12:55:15.061Z,4184.00
2023-03-06T12:56:15.068Z,4300.00
2023-03-06T12:57:15.066Z,4136.00
2023-03-06T12:58:15.072Z,3988.00
2023-03-06T12:59:15.083Z,4136.00
2023-03-06T13:00:15.097Z,3664.00
2023-03-06T13:01:15.186Z,3360.00
2023-03-06T13:02:15.136Z,2744.00
2023-03-06T13:03:15.145Z,2436.00
2023-03-06T13:04:15.117Z,2248.00
2023-03-06T13:05:15.098Z,2020.00
2023-03-06T13:06:15.126Z,1944.00
2023-03-06T13:07:15.105Z,1888.00
2023-03-06T13:08:15.109Z,1864.00
2023-03-06T13:09:15.115Z,1948.00
2023-03-06T13:10:15.129Z,1848.00
2023-03-06T13:11:15.117Z,1848.00
2023-03-06T13:12:15.123Z,1984.00
2023-03-06T13:13:15.122Z,2120.00
2023-03-06T13:14:15.136Z,2180.00
2023-03-06T13:15:15.137Z,2576.00
2023-03-06T13:16:15.227Z,2608.00
2023-03-06T13:17:15.185Z,2684.00
2023-03-06T13:18:15.147Z,2476.00
2023-03-06T13:19:15.148Z,2172.00
2023-03-06T13:20:15.148Z,2284.00
2023-03-06T13:21:15.147Z,2572.00
2023-03-06T13:22:15.155Z,3032.00
2023-03-06T13:23:15.154Z,3136.00
2023-03-06T13:24:15.157Z,3048.00
2023-03-06T13:25:15.166Z,2936.00
2023-03-06T13:26:15.164Z,3124.00
2023-03-06T13:27:15.165Z,3324.00
2023-03-06T13:28:15.168Z,3532.00
2023-03-06T13:29:15.185Z,3568.00
2023-03-06T13:30:15.181Z,3552.00
2023-03-06T13:31:26.482Z,3592.00
2023-03-06T13:32:15.262Z,3612.00
2023-03-06T13:33:15.224Z,3700.00
2023-03-06T13:34:15.194Z,3836.00
2023-03-06T13:35:15.189Z,3960.00
2023-03-06T13:36:15.200Z,4136.00
2023-03-06T13:37:15.194Z,4408.00
2023-03-06T13:38:15.199Z,4604.00
2023-03-06T13:39:15.206Z,4604.00
2023-03-06T13:40:15.204Z,4504.00
2023-03-06T13:41:15.215Z,4352.00
2023-03-06T13:42:15.210Z,4268.00
2023-03-06T13:43:15.216Z,4216.00
2023-03-06T13:44:15.222Z,4424.00
2023-03-06T13:45:15.232Z,4688.00
2023-03-06T13:46:15.289Z,4680.00
2023-03-06T13:47:15.233Z,4704.00
2023-03-06T13:48:37.450Z,4824.00
2023-03-06T13:49:15.309Z,5168.00
2023-03-06T13:50:15.244Z,5392.00
2023-03-06T13:51:15.248Z,5592.00
2023-03-06T13:52:15.251Z,5932.00
2023-03-06T13:53:15.246Z,6696.00
2023-03-06T13:54:15.374Z,8056.00
2023-03-06T13:55:15.259Z,9796.00
2023-03-06T13:56:15.265Z,10884.00
2023-03-06T13:57:15.257Z,10668.00
2023-03-06T13:58:15.266Z,10024.00
2023-03-06T13:59:15.272Z,9580.00
2023-03-06T14:00:15.330Z,9688.00
2023-03-06T14:01:15.309Z,11184.00
2023-03-06T14:02:15.284Z,19296.00
2023-03-06T14:03:15.288Z,20800.00
2023-03-06T14:04:15.285Z,21984.00
2023-03-06T14:05:15.313Z,22272.00
2023-03-06T14:06:15.303Z,30400.00
2023-03-06T14:07:15.302Z,43584.00
2023-03-06T14:08:15.320Z,37152.00
2023-03-06T14:09:15.310Z,19776.00
2023-03-06T14:10:15.334Z,16128.00
2023-03-06T14:11:15.313Z,12724.00
2023-03-06T14:12:15.327Z,9936.00
2023-03-06T14:13:15.327Z,8212.00
2023-03-06T14:14:15.330Z,7580.00
2023-03-06T14:15:15.336Z,7424.00
2023-03-06T14:16:15.380Z,7824.00
2023-03-06T14:17:15.345Z,8376.00
2023-03-06T14:18:15.354Z,8752.00
2023-03-06T14:19:15.363Z,9092.00
2023-03-06T14:20:15.363Z,9300.00
2023-03-06T14:21:15.401Z,9396.00
2023-03-06T14:22:15.368Z,9032.00
2023-03-06T14:23:15.373Z,8184.00
2023-03-06T14:24:15.383Z,7348.00
2023-03-06T14:25:15.383Z,6980.00
2023-03-06T14:26:15.427Z,6944.00
2023-03-06T14:27:15.424Z,6976.00
2023-03-06T14:28:15.433Z,7020.00
2023-03-06T14:29:15.448Z,7228.00
2023-03-06T14:30:15.453Z,7624.00
2023-03-06T14:31:15.428Z,8088.00
2023-03-06T14:32:15.475Z,8320.00
2023-03-06T14:33:15.468Z,8512.00
2023-03-06T14:34:15.482Z,8520.00
2023-03-06T14:35:15.465Z,8364.00
2023-03-06T14:36:15.463Z,8264.00
2023-03-06T14:37:15.476Z,8256.00
2023-03-06T14:38:15.442Z,8372.00
2023-03-06T14:39:15.455Z,8584.00
2023-03-06T14:40:15.478Z,8752.00
2023-03-06T14:41:15.457Z,10336.00
2023-03-06T14:42:15.490Z,11968.00
2023-03-06T14:43:15.474Z,11924.00
2023-03-06T14:44:15.475Z,11436.00
2023-03-06T14:45:15.501Z,12120.00
2023-03-06T14:46:15.506Z,12688.00
2023-03-06T14:47:15.487Z,12428.00
2023-03-06T14:48:15.491Z,12812.00
2023-03-06T14:49:15.506Z,13200.00
2023-03-06T14:50:15.521Z,13076.00
2023-03-06T14:51:15.508Z,12576.00
2023-03-06T14:52:15.507Z,11800.00
2023-03-06T14:53:15.529Z,10820.00
2023-03-06T14:54:15.521Z,9624.00
2023-03-06T14:55:15.518Z,8436.00
2023-03-06T14:56:15.531Z,7372.00
2023-03-06T14:57:15.531Z,6764.00
2023-03-06T14:58:15.540Z,6612.00
2023-03-06T14:59:15.544Z,6704.00
2023-03-06T15:00:15.607Z,6860.00
2023-03-06T15:01:15.554Z,7024.00
2023-03-06T15:02:15.592Z,6936.00
2023-03-06T15:03:15.560Z,6568.00
2023-03-06T15:04:15.623Z,6120.00
2023-03-06T15:05:15.578Z,5860.00
2023-03-06T15:06:15.573Z,5828.00
2023-03-06T15:07:15.664Z,5936.00
2023-03-06T15:08:15.607Z,6128.00
2023-03-06T15:09:15.605Z,6228.00
2023-03-06T15:10:15.580Z,6160.00
2023-03-06T15:11:15.626Z,6120.00
2023-03-06T15:12:15.629Z,5960.00
2023-03-06T15:13:15.606Z,5652.00
2023-03-06T15:14:15.598Z,5308.00
2023-03-06T15:15:15.631Z,5068.00
2023-03-06T15:16:15.650Z,4916.00
2023-03-06T15:17:15.624Z,4712.00
2023-03-06T15:18:15.626Z,4584.00
2023-03-06T15:19:15.615Z,4624.00
2023-03-06T15:20:15.619Z,4676.00
2023-03-06T15:21:15.637Z,4704.00
2023-03-06T15:22:15.657Z,4748.00
2023-03-06T15:23:15.660Z,5068.00
2023-03-06T15:24:15.633Z,5576.00
2023-03-06T15:25:15.762Z,5872.00
2023-03-06T15:26:15.643Z,5952.00
2023-03-06T15:27:15.669Z,6060.00
2023-03-06T15:28:15.647Z,5864.00
2023-03-06T15:29:15.665Z,5736.00
2023-03-06T15:30:15.699Z,5620.00
2023-03-06T15:31:15.684Z,5352.00
2023-03-06T15:32:15.705Z,5088.00
2023-03-06T15:33:15.676Z,4880.00
2023-03-06T15:34:15.701Z,4728.00
2023-03-06T15:35:15.699Z,4624.00
2023-03-06T15:36:15.696Z,4432.00
2023-03-06T15:37:15.696Z,4304.00
2023-03-06T15:39:13.259Z,4068.00
2023-03-06T15:40:13.262Z,3948.00
2023-03-06T15:41:13.318Z,4240.00
2023-03-06T15:42:13.277Z,4064.00
2023-03-06T15:43:13.278Z,4144.00
2023-03-06T15:44:13.286Z,4136.00
2023-03-06T15:45:13.285Z,4152.00
2023-03-06T15:46:13.279Z,4268.00
2023-03-06T15:47:13.289Z,4852.00
2023-03-06T15:48:13.294Z,5720.00
2023-03-06T15:49:13.288Z,9324.00
2023-03-06T15:50:13.300Z,10408.00
2023-03-06T15:51:13.343Z,9452.00
2023-03-06T15:52:13.310Z,7756.00
2023-03-06T15:53:13.304Z,6284.00
2023-03-06T15:54:13.307Z,6076.00
2023-03-06T15:55:13.318Z,5968.00
2023-03-06T15:56:13.324Z,5884.00
2023-03-06T15:57:13.361Z,5584.00
2023-03-06T15:58:13.325Z,4928.00
2023-03-06T15:59:13.332Z,4552.00
2023-03-06T16:00:26.692Z,4224.00
2023-03-06T16:01:13.380Z,3984.00
2023-03-06T16:02:13.346Z,3776.00
2023-03-06T16:03:13.343Z,3596.00
2023-03-06T16:04:13.413Z,3472.00
2023-03-06T16:05:13.356Z,3356.00
2023-03-06T16:06:13.354Z,3252.00
2023-03-06T16:07:13.382Z,3136.00
2023-03-06T16:08:13.359Z,2968.00
2023-03-06T16:09:13.367Z,2752.00
2023-03-06T16:10:13.375Z,2652.00
2023-03-06T16:11:13.373Z,2580.00
2023-03-06T16:12:13.373Z,2528.00
2023-03-06T16:13:13.403Z,2420.00
2023-03-06T16:14:13.391Z,2296.00
2023-03-06T16:15:13.392Z,2104.00
2023-03-06T16:16:13.415Z,2008.00
2023-03-06T16:17:13.388Z,1936.00
2023-03-06T16:18:13.417Z,1880.00
2023-03-06T16:19:23.842Z,1824.00
2023-03-06T16:20:13.404Z,1752.00
2023-03-06T16:21:13.400Z,1656.00
2023-03-06T16:22:13.406Z,1580.00
2023-03-06T16:23:13.406Z,1536.00
2023-03-06T16:24:13.416Z,1472.00
2023-03-06T16:25:13.418Z,1420.00
2023-03-06T16:26:13.421Z,1384.00
2023-03-06T16:27:13.426Z,1332.00
2023-03-06T16:28:13.432Z,1268.00
2023-03-06T16:29:13.459Z,1224.00
2023-03-06T16:30:13.424Z,1200.00
2023-03-06T16:31:13.508Z,1168.00
2023-03-06T16:32:13.510Z,1132.00
2023-03-06T16:33:13.434Z,1096.00
2023-03-06T16:34:13.462Z,1056.00
2023-03-06T16:35:13.440Z,1008.00
2023-03-06T16:36:13.440Z,952.00
2023-03-06T16:37:13.456Z,892.00
2023-03-06T16:38:13.451Z,844.00
2023-03-06T16:39:13.482Z,800.00
2023-03-06T16:40:13.454Z,764.00
2023-03-06T16:41:13.457Z,728.00
2023-03-06T16:42:13.451Z,692.00
2023-03-06T16:43:13.624Z,656.00
2023-03-06T16:44:13.463Z,620.00
2023-03-06T16:45:13.495Z,592.00
2023-03-06T16:46:13.542Z,556.00
2023-03-06T16:47:13.472Z,524.00
2023-03-06T16:48:13.465Z,496.00
2023-03-06T16:49:13.467Z,468.00
2023-03-06T16:50:13.471Z,444.00
2023-03-06T16:51:13.475Z,420.00
2023-03-06T16:52:13.492Z,392.00
2023-03-06T16:53:13.487Z,364.00
2023-03-06T16:54:13.495Z,340.00
2023-03-06T16:55:13.482Z,316.00
2023-03-06T16:56:13.499Z,292.00
2023-03-06T16:57:13.494Z,272.00
2023-03-06T16:58:13.489Z,252.00
2023-03-06T16:59:13.539Z,232.00
2023-03-06T17:00:13.514Z,208.00
2023-03-06T17:01:13.567Z,192.00
2023-03-06T17:02:13.577Z,172.00
2023-03-06T17:03:13.497Z,152.00
2023-03-06T17:04:13.504Z,140.00
2023-03-06T17:05:13.505Z,128.00
2023-03-06T17:06:13.516Z,112.00
2023-03-06T17:07:13.505Z,100.00
2023-03-06T17:08:13.516Z,88.00
2023-03-06T17:09:13.508Z,80.00
2023-03-06T17:10:13.522Z,68.00
2023-03-06T17:11:13.521Z,60.00
2023-03-06T17:12:13.516Z,52.00
2023-03-06T17:13:13.518Z,44.00
2023-03-06T17:14:13.531Z,40.00
2023-03-06T17:15:13.529Z,32.00
2023-03-06T17:16:13.597Z,28.00
2023-03-06T17:17:13.559Z,24.00
2023-03-06T17:18:13.525Z,24.00
2023-03-06T17:19:13.528Z,16.00
2023-03-06T17:20:13.529Z,16.00
2023-03-06T17:21:13.537Z,12.00
2023-03-06T17:22:13.539Z,8.00
2023-03-06T17:23:13.541Z,8.00
2023-03-06T17:24:13.536Z,8.00
2023-03-06T17:25:13.537Z,8.00
2023-03-06T17:26:13.549Z,4.00
2023-03-06T17:27:13.541Z,4.00
2023-03-06T17:28:13.550Z,4.00
2023-03-06T17:29:13.545Z,0.00
2023-03-06T17:30:13.562Z,4.00
2023-03-06T17:31:13.597Z,4.00
2023-03-06T17:32:13.620Z,4.00
2023-03-06T17:33:13.580Z,0.00
2023-03-06T17:34:13.558Z,0.00
2023-03-06T17:35:13.559Z,0.00
2023-03-06T17:36:13.563Z,0.00
2023-03-06T17:37:13.589Z,0.00
2023-03-06T17:38:13.554Z,0.00
2023-03-06T17:39:13.565Z,0.00
2023-03-06T17:40:13.558Z,0.00
2023-03-06T17:41:13.561Z,0.00
2023-03-06T17:42:13.572Z,0.00
2023-03-06T17:43:13.562Z,0.00
2023-03-06T17:44:13.564Z,0.00
2023-03-06T17:45:13.566Z,0.00
2023-03-06T17:46:13.672Z,0.00
2023-03-06T17:47:13.568Z,0.00
2023-03-06T17:48:13.570Z,0.00
2023-03-06T17:49:13.615Z,0.00
2023-03-06T17:50:13.571Z,0.00
2023-03-06T17:51:13.575Z,0.00
2023-03-06T17:52:13.585Z,0.00
2023-03-06T17:53:13.584Z,0.00
2023-03-06T17:54:13.577Z,0.00
2023-03-06T17:55:13.590Z,0.00
2023-03-06T17:56:13.585Z,0.00
2023-03-06T17:57:13.583Z,0.00
2023-03-06T17:58:13.594Z,0.00
2023-03-06T17:59:13.584Z,0.00
2023-03-06T18:00:13.592Z,0.00
2023-03-06T18:01:13.603Z,0.00
2023-03-06T18:02:13.590Z,0.00
2023-03-06T18:03:13.589Z,0.00
2023-03-06T18:04:13.618Z,0.00
2023-03-06T18:05:13.717Z,0.00
2023-03-06T18:06:13.590Z,0.00
2023-03-06T18:07:13.598Z,0.00
2023-03-06T18:08:13.595Z,0.00
2023-03-06T18:09:13.600Z,0.00
2023-03-06T18:10:13.608Z,0.00
2023-03-06T18:11:13.607Z,0.00
2023-03-06T18:12:13.599Z,0.00
2023-03-06T18:13:13.606Z,0.00
2023-03-06T18:14:13.612Z,0.00
2023-03-06T18:15:13.607Z,0.00
2023-03-06T18:16:13.685Z,0.00
2023-03-06T18:17:13.609Z,0.00
2023-03-06T18:18:13.607Z,0.00
2023-03-06T18:19:13.606Z,0.00
2023-03-06T18:20:13.614Z,0.00
2023-03-06T18:21:13.636Z,0.00
2023-03-06T18:22:13.616Z,0.00
2023-03-06T18:23:13.626Z,0.00
2023-03-06T18:24:13.612Z,0.00
2023-03-06T18:25:13.624Z,0.00
2023-03-06T18:26:13.618Z,0.00
2023-03-06T18:27:13.613Z,0.00
2023-03-06T18:28:13.615Z,0.00
2023-03-06T18:29:13.622Z,0.00
2023-03-06T18:30:13.618Z,0.00
2023-03-06T18:31:13.676Z,0.00
2023-03-06T18:32:13.627Z,0.00
2023-03-06T18:33:13.625Z,0.00
2023-03-06T18:34:13.630Z,0.00
2023-03-06T18:35:14.637Z,0.00
2023-03-06T18:36:13.632Z,0.00
2023-03-06T18:37:13.670Z,0.00
2023-03-06T18:38:13.640Z,0.00
2023-03-06T18:39:13.631Z,0.00
2023-03-06T18:40:13.630Z,0.00
2023-03-06T18:41:13.636Z,0.00
2023-03-06T18:42:13.641Z,0.00
2023-03-06T18:43:13.635Z,0.00
2023-03-06T18:44:13.634Z,0.00
2023-03-06T18:45:13.636Z,0.00
2023-03-06T18:46:13.642Z,0.00
2023-03-06T18:47:13.636Z,0.00
2023-03-06T18:48:13.649Z,0.00
2023-03-06T18:49:13.651Z,0.00
2023-03-06T18:50:13.649Z,0.00
2023-03-06T18:51:13.651Z,0.00
2023-03-06T18:52:13.641Z,0.00
2023-03-06T18:53:13.666Z,0.00
2023-03-06T18:54:13.651Z,0.00
2023-03-06T18:55:13.662Z,0.00
2023-03-06T18:56:13.655Z,0.00
2023-03-06T18:57:13.653Z,0.00
2023-03-06T18:58:13.651Z,0.00
2023-03-06T18:59:13.646Z,0.00
2023-03-06T19:00:13.655Z,0.00
2023-03-06T19:01:13.695Z,0.00
2023-03-06T19:02:13.648Z,0.00
2023-03-06T19:03:13.660Z,0.00
2023-03-06T19:04:13.716Z,0.00
2023-03-06T19:05:13.662Z,0.00
2023-03-06T19:06:13.656Z,0.00
2023-03-06T19:07:13.667Z,0.00
2023-03-06T19:08:13.659Z,0.00
2023-03-06T19:09:13.795Z,0.00
2023-03-06T19:10:13.668Z,0.00
2023-03-06T19:11:13.662Z,0.00
2023-03-06T19:12:13.664Z,0.00
2023-03-06T19:13:13.664Z,0.00
2023-03-06T19:14:13.725Z,0.00
2023-03-06T19:15:13.672Z,0.00
2023-03-06T19:16:13.705Z,0.00
2023-03-06T19:17:13.666Z,0.00
2023-03-06T19:18:13.669Z,0.00
2023-03-06T19:19:13.685Z,0.00
2023-03-06T19:20:13.679Z,0.00
2023-03-06T19:21:13.683Z,0.00
2023-03-06T19:22:13.680Z,0.00
2023-03-06T19:23:13.673Z,0.00
2023-03-06T19:24:13.678Z,0.00
2023-03-06T19:25:13.694Z,0.00
2023-03-06T19:26:13.676Z,0.00
2023-03-06T19:27:13.678Z,0.00
2023-03-06T19:28:13.687Z,0.00
2023-03-06T19:29:13.684Z,0.00
2023-03-06T19:30:13.682Z,0.00
2023-03-06T19:31:13.683Z,0.00
2023-03-06T19:32:13.972Z,0.00
2023-03-06T19:33:13.687Z,0.00
2023-03-06T19:34:13.689Z,0.00
2023-03-06T19:35:13.680Z,0.00
2023-03-06T19:36:13.684Z,0.00
2023-03-06T19:37:13.690Z,0.00
2023-03-06T19:38:13.696Z,0.00
2023-03-06T19:39:13.694Z,0.00
2023-03-06T19:40:13.687Z,0.00
2023-03-06T19:41:13.935Z,0.00
2023-03-06T19:42:14.025Z,0.00
2023-03-06T19:43:13.688Z,0.00
2023-03-06T19:44:13.698Z,0.00
2023-03-06T19:45:13.697Z,0.00
2023-03-06T19:46:13.841Z,0.00
2023-03-06T19:47:13.692Z,0.00
2023-03-06T19:48:13.704Z,0.00
2023-03-06T19:49:13.692Z,0.00
2023-03-06T19:50:13.695Z,0.00
2023-03-06T19:51:13.694Z,0.00
2023-03-06T19:52:13.897Z,0.00
2023-03-06T19:53:13.700Z,0.00
2023-03-06T19:54:14.946Z,0.00
2023-03-06T19:55:13.705Z,0.00
2023-03-06T19:56:13.700Z,0.00
2023-03-06T19:57:13.735Z,0.00
2023-03-06T19:58:13.707Z,0.00
2023-03-06T19:59:13.709Z,0.00
2023-03-06T20:00:13.709Z,0.00
2023-03-06T20:01:13.805Z,0.00
2023-03-06T20:02:13.701Z,0.00
2023-03-06T20:03:13.722Z,0.00
2023-03-06T20:04:13.731Z,0.00
2023-03-06T20:05:13.703Z,0.00
2023-03-06T20:06:13.713Z,0.00
2023-03-06T20:07:13.737Z,0.00
2023-03-06T20:08:13.712Z,0.00
2023-03-06T20:09:13.713Z,0.00
2023-03-06T20:10:13.715Z,0.00
2023-03-06T20:11:13.711Z,0.00
2023-03-06T20:12:13.705Z,0.00
2023-03-06T20:13:13.734Z,0.00
2023-03-06T20:14:13.707Z,0.00
2023-03-06T20:15:13.709Z,0.00
2023-03-06T20:16:13.804Z,0.00
2023-03-06T20:17:13.702Z,0.00
2023-03-06T20:18:13.718Z,0.00
2023-03-06T20:19:13.707Z,0.00
2023-03-06T20:20:13.702Z,0.00
2023-03-06T20:21:13.726Z,0.00
2023-03-06T20:22:13.717Z,0.00
2023-03-06T20:23:16.242Z,0.00
2023-03-06T20:24:13.709Z,0.00
2023-03-06T20:25:13.706Z,0.00
2023-03-06T20:26:13.712Z,0.00
2023-03-06T20:27:13.702Z,0.00
2023-03-06T20:28:13.701Z,0.00
2023-03-06T20:29:13.733Z,0.00
2023-03-06T20:30:13.701Z,0.00
2023-03-06T20:31:13.736Z,0.00
2023-03-06T20:32:13.771Z,0.00
2023-03-06T20:34:13.703Z,0.00
2023-03-06T20:35:13.709Z,0.00
2023-03-06T20:36:13.714Z,0.00
2023-03-06T20:37:13.706Z,0.00
2023-03-06T20:38:13.706Z,0.00
2023-03-06T20:39:13.713Z,0.00
2023-03-06T20:40:13.742Z,0.00
2023-03-06T20:41:14.923Z,0.00
2023-03-06T20:42:13.718Z,0.00
2023-03-06T20:43:13.711Z,0.00
2023-03-06T20:44:13.713Z,0.00
2023-03-06T20:45:13.730Z,0.00
2023-03-06T20:46:13.747Z,0.00
2023-03-06T20:47:13.708Z,0.00
2023-03-06T20:48:13.712Z,0.00
2023-03-06T20:49:13.708Z,0.00
2023-03-06T20:50:13.706Z,0.00
2023-03-06T20:51:13.707Z,0.00
2023-03-06T20:52:13.713Z,0.00
2023-03-06T20:53:13.719Z,0.00
2023-03-06T20:54:13.721Z,0.00
2023-03-06T20:55:13.714Z,0.00
2023-03-06T20:56:13.713Z,0.00
2023-03-06T20:57:13.718Z,0.00
2023-03-06T20:58:13.716Z,0.00
2023-03-06T20:59:13.747Z,0.00
2023-03-06T21:00:13.713Z,0.00
2023-03-06T21:01:13.822Z,0.00
2023-03-06T21:02:13.711Z,0.00
2023-03-06T21:03:13.721Z,0.00
2023-03-06T21:04:13.884Z,0.00
2023-03-06T21:05:13.758Z,0.00
2023-03-06T21:06:13.719Z,0.00
2023-03-06T21:07:14.121Z,0.00
2023-03-06T21:08:13.718Z,0.00
2023-03-06T21:09:13.714Z,0.00
2023-03-06T21:10:13.923Z,0.00
2023-03-06T21:11:13.724Z,0.00
2023-03-06T21:12:13.715Z,0.00
2023-03-06T21:13:13.715Z,0.00
2023-03-06T21:14:13.716Z,0.00
2023-03-06T21:15:13.723Z,0.00
2023-03-06T21:16:13.854Z,0.00
2023-03-06T21:17:13.966Z,0.00
2023-03-06T21:18:13.716Z,0.00
2023-03-06T21:19:13.717Z,0.00
2023-03-06T21:20:13.727Z,0.00
2023-03-06T21:21:13.724Z,0.00
2023-03-06T21:22:13.736Z,0.00
2023-03-06T21:23:13.719Z,0.00
2023-03-06T21:24:13.726Z,0.00
2023-03-06T21:25:13.719Z,0.00
2023-03-06T21:26:13.730Z,0.00
2023-03-06T21:27:13.722Z,0.00
2023-03-06T21:28:13.722Z,0.00
2023-03-06T21:29:13.718Z,0.00
2023-03-06T21:30:13.721Z,0.00
2023-03-06T21:31:13.759Z,0.00
2023-03-06T21:32:13.786Z,0.00
2023-03-06T21:33:13.750Z,0.00
2023-03-06T21:34:13.734Z,0.00
2023-03-06T21:35:13.722Z,0.00
2023-03-06T21:36:13.730Z,0.00
2023-03-06T21:37:13.723Z,0.00
2023-03-06T21:38:13.721Z,0.00
2023-03-06T21:39:13.721Z,0.00
2023-03-06T21:40:14.940Z,0.00
2023-03-06T21:41:13.730Z,0.00
2023-03-06T21:42:13.732Z,0.00
2023-03-06T21:43:13.738Z,0.00
2023-03-06T21:44:13.721Z,0.00
2023-03-06T21:45:13.722Z,0.00
2023-03-06T21:46:13.832Z,0.00
2023-03-06T21:47:13.738Z,0.00
2023-03-06T21:48:13.724Z,0.00
2023-03-06T21:49:13.760Z,0.00
2023-03-06T21:50:13.731Z,0.00
2023-03-06T21:51:13.723Z,0.00
2023-03-06T21:52:13.732Z,0.00
2023-03-06T21:53:13.725Z,0.00
2023-03-06T21:54:16.350Z,0.00
2023-03-06T21:55:13.722Z,0.00
2023-03-06T21:56:13.730Z,0.00
2023-03-06T21:57:13.728Z,0.00
2023-03-06T21:58:13.732Z,0.00
2023-03-06T21:59:13.724Z,0.00
2023-03-06T22:00:13.730Z,0.00
2023-03-06T22:01:13.768Z,0.00
2023-03-06T22:02:13.720Z,0.00
2023-03-06T22:03:13.727Z,0.00
2023-03-06T22:04:13.770Z,0.00
2023-03-06T22:05:13.756Z,0.00
2023-03-06T22:06:13.720Z,0.00
2023-03-06T22:07:13.728Z,0.00
2023-03-06T22:08:13.720Z,0.00
2023-03-06T22:09:13.722Z,0.00
2023-03-06T22:10:13.730Z,0.00
2023-03-06T22:11:13.720Z,0.00
2023-03-06T22:12:13.723Z,0.00
2023-03-06T22:13:13.729Z,0.00
2023-03-06T22:14:13.728Z,0.00
2023-03-06T22:15:13.720Z,0.00
2023-03-06T22:16:13.767Z,0.00
2023-03-06T22:17:13.732Z,0.00
2023-03-06T22:18:13.726Z,0.00
2023-03-06T22:19:13.721Z,0.00
2023-03-06T22:20:13.727Z,0.00
2023-03-06T22:21:13.751Z,0.00
2023-03-06T22:22:13.724Z,0.00
2023-03-06T22:23:13.720Z,0.00
2023-03-06T22:24:13.729Z,0.00
2023-03-06T22:25:13.920Z,0.00
2023-03-06T22:27:13.721Z,0.00
2023-03-06T22:28:13.718Z,0.00
2023-03-06T22:29:13.719Z,0.00
2023-03-06T22:30:13.727Z,0.00
2023-03-06T22:31:13.717Z,0.00
2023-03-06T22:32:13.879Z,0.00
2023-03-06T22:33:13.714Z,0.00
2023-03-06T22:34:13.727Z,0.00
2023-03-06T22:35:13.722Z,0.00
2023-03-06T22:36:13.732Z,0.00
2023-03-06T22:37:13.746Z,0.00
2023-03-06T22:38:14.333Z,0.00
2023-03-06T22:39:13.726Z,0.00
2023-03-06T22:40:13.715Z,0.00
2023-03-06T22:41:13.741Z,0.00
2023-03-06T22:42:13.721Z,0.00
2023-03-06T22:43:13.712Z,0.00
2023-03-06T22:44:13.712Z,0.00
2023-03-06T22:45:13.711Z,0.00
2023-03-06T22:46:13.780Z,0.00
2023-03-06T22:47:13.713Z,0.00
2023-03-06T22:48:13.710Z,0.00
2023-03-06T22:49:13.711Z,0.00
2023-03-06T22:50:13.731Z,0.00
2023-03-06T22:52:15.193Z,0.00
2023-03-06T22:53:13.738Z,0.00
2023-03-06T22:54:13.715Z,0.00
2023-03-06T22:55:13.717Z,0.00
2023-03-06T22:56:13.718Z,0.00
2023-03-06T22:57:14.921Z,0.00
2023-03-06T22:58:13.711Z,0.00
2023-03-06T22:59:13.716Z,0.00
2023-03-06T23:00:13.710Z,0.00
2023-03-06T23:01:13.752Z,0.00
2023-03-06T23:02:13.716Z,0.00
2023-03-06T23:03:13.719Z,0.00
2023-03-06T23:04:13.727Z,0.00
2023-03-06T23:05:13.719Z,0.00
2023-03-06T23:06:13.720Z,0.00
2023-03-06T23:07:13.731Z,0.00
2023-03-06T23:08:13.711Z,0.00
2023-03-06T23:09:13.746Z,0.00
2023-03-06T23:10:13.927Z,0.00
2023-03-06T23:11:13.718Z,0.00
2023-03-06T23:12:13.721Z,0.00
2023-03-06T23:13:13.715Z,0.00
2023-03-06T23:14:13.726Z,0.00
2023-03-06T23:15:13.717Z,0.00
2023-03-06T23:16:13.721Z,0.00
2023-03-06T23:17:13.721Z,0.00
2023-03-06T23:18:13.719Z,0.00
2023-03-06T23:19:13.717Z,0.00